sensor_id;sensor_type;location;lat;lon;timestamp;P1;durP1;ratioP1;P2;durP2;ratioP2
6217;SDS011;3142;48.206;11.550;2023-09-07T00:01:56;4.32;;;3.92;;
6217;SDS011;3142;48.206;11.550;2023-09-07T00:04:23;5.05;;;4.15;;
6217;SDS011;3142;48.206;11.550;2023-09-07T00:06:50;5.20;;;3.90;;
6217;SDS011;3142;48.206;11.550;2023-09-07T00:09:17;4.43;;;4.03;;
6217;SDS011;3142;48.206;11.550;2023-09-07T00:11:46;5.35;;;4.60;;
6217;SDS011;3142;48.206;11.550;2023-09-07T00:14:13;4.57;;;3.83;;
6217;SDS011;3142;48.206;11.550;2023-09-07T00:16:40;4.30;;;3.88;;
6217;SDS011;3142;48.206;11.550;2023-09-07T00:19:06;5.32;;;3.85;;
6217;SDS011;3142;48.206;11.550;2023-09-07T00:21:33;7.75;;;3.90;;
6217;SDS011;3142;48.206;11.550;2023-09-07T00:24:00;4.70;;;4.20;;
6217;SDS011;3142;48.206;11.550;2023-09-07T00:26:30;6.75;;;4.10;;
6217;SDS011;3142;48.206;11.550;2023-09-07T00:28:56;5.32;;;4.10;;
6217;SDS011;3142;48.206;11.550;2023-09-07T00:31:24;4.97;;;4.07;;
6217;SDS011;3142;48.206;11.550;2023-09-07T00:33:50;5.50;;;4.15;;
6217;SDS011;3142;48.206;11.550;2023-09-07T00:36:17;5.47;;;3.78;;
6217;SDS011;3142;48.206;11.550;2023-09-07T00:38:44;4.35;;;3.95;;
6217;SDS011;3142;48.206;11.550;2023-09-07T00:41:12;5.07;;;4.60;;
6217;SDS011;3142;48.206;11.550;2023-09-07T00:43:39;6.05;;;4.40;;
6217;SDS011;3142;48.206;11.550;2023-09-07T00:46:06;6.55;;;4.75;;
6217;SDS011;3142;48.206;11.550;2023-09-07T00:48:32;5.20;;;4.70;;
6217;SDS011;3142;48.206;11.550;2023-09-07T00:50:59;5.97;;;4.30;;
6217;SDS011;3142;48.206;11.550;2023-09-07T00:53:26;5.70;;;4.07;;
6217;SDS011;3142;48.206;11.550;2023-09-07T00:55:53;6.28;;;4.82;;
6217;SDS011;3142;48.206;11.550;2023-09-07T00:58:22;8.20;;;4.35;;
6217;SDS011;3142;48.206;11.550;2023-09-07T01:00:48;4.55;;;4.15;;
6217;SDS011;3142;48.206;11.550;2023-09-07T01:03:15;4.95;;;4.45;;
6217;SDS011;3142;48.206;11.550;2023-09-07T01:05:43;6.35;;;4.43;;
6217;SDS011;3142;48.206;11.550;2023-09-07T01:08:17;5.22;;;4.57;;
6217;SDS011;3142;48.206;11.550;2023-09-07T01:10:49;4.45;;;4.00;;
6217;SDS011;3142;48.206;11.550;2023-09-07T01:13:15;4.20;;;3.80;;
6217;SDS011;3142;48.206;11.550;2023-09-07T01:15:43;6.35;;;4.10;;
6217;SDS011;3142;48.206;11.550;2023-09-07T01:18:10;6.47;;;4.65;;
6217;SDS011;3142;48.206;11.550;2023-09-07T01:20:36;5.13;;;4.43;;
6217;SDS011;3142;48.206;11.550;2023-09-07T01:23:08;5.93;;;4.25;;
6217;SDS011;3142;48.206;11.550;2023-09-07T01:25:34;5.28;;;4.45;;
6217;SDS011;3142;48.206;11.550;2023-09-07T01:28:01;5.05;;;4.25;;
6217;SDS011;3142;48.206;11.550;2023-09-07T01:30:28;4.80;;;4.38;;
6217;SDS011;3142;48.206;11.550;2023-09-07T01:32:54;5.38;;;4.32;;
6217;SDS011;3142;48.206;11.550;2023-09-07T01:35:21;9.45;;;4.55;;
6217;SDS011;3142;48.206;11.550;2023-09-07T01:37:48;4.72;;;4.32;;
6217;SDS011;3142;48.206;11.550;2023-09-07T01:40:16;6.50;;;4.28;;
6217;SDS011;3142;48.206;11.550;2023-09-07T01:42:42;5.38;;;4.18;;
6217;SDS011;3142;48.206;11.550;2023-09-07T01:45:09;4.68;;;4.28;;
6217;SDS011;3142;48.206;11.550;2023-09-07T01:47:35;4.82;;;4.40;;
6217;SDS011;3142;48.206;11.550;2023-09-07T01:50:02;7.68;;;4.18;;
6217;SDS011;3142;48.206;11.550;2023-09-07T01:52:28;6.57;;;4.18;;
6217;SDS011;3142;48.206;11.550;2023-09-07T01:54:56;5.03;;;4.27;;
6217;SDS011;3142;48.206;11.550;2023-09-07T01:57:24;5.43;;;4.40;;
6217;SDS011;3142;48.206;11.550;2023-09-07T01:59:50;5.43;;;4.78;;
6217;SDS011;3142;48.206;11.550;2023-09-07T02:02:17;4.80;;;4.13;;
6217;SDS011;3142;48.206;11.550;2023-09-07T02:04:43;6.47;;;4.32;;
6217;SDS011;3142;48.206;11.550;2023-09-07T02:07:11;5.25;;;4.50;;
6217;SDS011;3142;48.206;11.550;2023-09-07T02:09:37;4.50;;;4.10;;
6217;SDS011;3142;48.206;11.550;2023-09-07T02:12:04;6.00;;;4.88;;
6217;SDS011;3142;48.206;11.550;2023-09-07T02:14:32;5.28;;;4.50;;
6217;SDS011;3142;48.206;11.550;2023-09-07T02:16:58;5.47;;;4.43;;
6217;SDS011;3142;48.206;11.550;2023-09-07T02:19:25;4.90;;;4.40;;
6217;SDS011;3142;48.206;11.550;2023-09-07T02:21:51;5.88;;;4.95;;
6217;SDS011;3142;48.206;11.550;2023-09-07T02:24:19;28.98;;;24.77;;
6217;SDS011;3142;48.206;11.550;2023-09-07T02:26:45;40.00;;;33.85;;
6217;SDS011;3142;48.206;11.550;2023-09-07T02:29:12;41.58;;;35.63;;
6217;SDS011;3142;48.206;11.550;2023-09-07T02:31:39;47.45;;;41.47;;
6217;SDS011;3142;48.206;11.550;2023-09-07T02:34:06;27.77;;;24.88;;
6217;SDS011;3142;48.206;11.550;2023-09-07T02:36:33;8.82;;;6.97;;
6217;SDS011;3142;48.206;11.550;2023-09-07T02:38:59;7.68;;;4.75;;
6217;SDS011;3142;48.206;11.550;2023-09-07T02:41:26;6.80;;;4.80;;
6217;SDS011;3142;48.206;11.550;2023-09-07T02:43:52;5.82;;;4.32;;
6217;SDS011;3142;48.206;11.550;2023-09-07T02:46:19;5.30;;;4.63;;
6217;SDS011;3142;48.206;11.550;2023-09-07T02:48:47;5.57;;;5.00;;
6217;SDS011;3142;48.206;11.550;2023-09-07T02:51:13;5.18;;;4.70;;
6217;SDS011;3142;48.206;11.550;2023-09-07T02:53:39;5.30;;;4.80;;
6217;SDS011;3142;48.206;11.550;2023-09-07T02:56:06;6.97;;;4.73;;
6217;SDS011;3142;48.206;11.550;2023-09-07T02:58:32;8.07;;;5.25;;
6217;SDS011;3142;48.206;11.550;2023-09-07T03:00:59;5.18;;;4.68;;
6217;SDS011;3142;48.206;11.550;2023-09-07T03:03:25;5.17;;;4.60;;
6217;SDS011;3142;48.206;11.550;2023-09-07T03:05:53;4.67;;;4.27;;
6217;SDS011;3142;48.206;11.550;2023-09-07T03:08:19;5.70;;;5.20;;
6217;SDS011;3142;48.206;11.550;2023-09-07T03:10:46;5.28;;;4.43;;
6217;SDS011;3142;48.206;11.550;2023-09-07T03:13:12;6.40;;;4.83;;
6217;SDS011;3142;48.206;11.550;2023-09-07T03:15:39;14.80;;;5.37;;
6217;SDS011;3142;48.206;11.550;2023-09-07T03:18:05;5.93;;;5.37;;
6217;SDS011;3142;48.206;11.550;2023-09-07T03:20:32;6.00;;;5.40;;
6217;SDS011;3142;48.206;11.550;2023-09-07T03:23:00;9.33;;;5.17;;
6217;SDS011;3142;48.206;11.550;2023-09-07T03:25:27;5.75;;;4.93;;
6217;SDS011;3142;48.206;11.550;2023-09-07T03:27:53;6.63;;;4.30;;
6217;SDS011;3142;48.206;11.550;2023-09-07T03:30:20;6.33;;;4.40;;
6217;SDS011;3142;48.206;11.550;2023-09-07T03:32:46;5.20;;;4.73;;
6217;SDS011;3142;48.206;11.550;2023-09-07T03:35:13;7.80;;;5.30;;
6217;SDS011;3142;48.206;11.550;2023-09-07T03:37:41;6.43;;;5.07;;
6217;SDS011;3142;48.206;11.550;2023-09-07T03:40:10;6.13;;;5.00;;
6217;SDS011;3142;48.206;11.550;2023-09-07T03:42:36;5.72;;;4.93;;
6217;SDS011;3142;48.206;11.550;2023-09-07T03:45:04;6.17;;;5.40;;
6217;SDS011;3142;48.206;11.550;2023-09-07T03:47:32;6.33;;;5.73;;
6217;SDS011;3142;48.206;11.550;2023-09-07T03:49:58;6.13;;;5.57;;
6217;SDS011;3142;48.206;11.550;2023-09-07T03:52:25;6.80;;;5.50;;
6217;SDS011;3142;48.206;11.550;2023-09-07T03:54:53;6.87;;;5.00;;
6217;SDS011;3142;48.206;11.550;2023-09-07T03:57:22;5.77;;;4.93;;
6217;SDS011;3142;48.206;11.550;2023-09-07T03:59:49;6.05;;;4.88;;
6217;SDS011;3142;48.206;11.550;2023-09-07T04:02:15;5.93;;;5.03;;
6217;SDS011;3142;48.206;11.550;2023-09-07T04:04:42;9.25;;;5.40;;
6217;SDS011;3142;48.206;11.550;2023-09-07T04:07:09;6.75;;;4.72;;
6217;SDS011;3142;48.206;11.550;2023-09-07T04:09:35;5.70;;;5.00;;
6217;SDS011;3142;48.206;11.550;2023-09-07T04:12:01;5.37;;;4.87;;
6217;SDS011;3142;48.206;11.550;2023-09-07T04:14:30;6.37;;;5.37;;
6217;SDS011;3142;48.206;11.550;2023-09-07T04:16:57;5.40;;;4.73;;
6217;SDS011;3142;48.206;11.550;2023-09-07T04:19:23;13.37;;;10.00;;
6217;SDS011;3142;48.206;11.550;2023-09-07T04:21:49;20.80;;;13.70;;
6217;SDS011;3142;48.206;11.550;2023-09-07T04:24:16;9.93;;;7.20;;
6217;SDS011;3142;48.206;11.550;2023-09-07T04:26:43;5.50;;;5.00;;
6217;SDS011;3142;48.206;11.550;2023-09-07T04:29:09;7.37;;;4.93;;
6217;SDS011;3142;48.206;11.550;2023-09-07T04:31:38;5.93;;;4.87;;
6217;SDS011;3142;48.206;11.550;2023-09-07T04:34:04;7.00;;;5.00;;
6217;SDS011;3142;48.206;11.550;2023-09-07T04:36:31;9.27;;;5.03;;
6217;SDS011;3142;48.206;11.550;2023-09-07T04:38:57;5.33;;;4.80;;
6217;SDS011;3142;48.206;11.550;2023-09-07T04:41:24;7.70;;;5.40;;
6217;SDS011;3142;48.206;11.550;2023-09-07T04:43:50;6.77;;;4.93;;
6217;SDS011;3142;48.206;11.550;2023-09-07T04:46:17;6.57;;;5.23;;
6217;SDS011;3142;48.206;11.550;2023-09-07T04:48:49;6.10;;;5.50;;
6217;SDS011;3142;48.206;11.550;2023-09-07T04:51:15;6.93;;;5.00;;
6217;SDS011;3142;48.206;11.550;2023-09-07T04:53:42;6.07;;;5.27;;
6217;SDS011;3142;48.206;11.550;2023-09-07T04:56:08;13.07;;;5.93;;
6217;SDS011;3142;48.206;11.550;2023-09-07T04:58:35;6.90;;;6.17;;
6217;SDS011;3142;48.206;11.550;2023-09-07T05:01:01;7.47;;;5.87;;
6217;SDS011;3142;48.206;11.550;2023-09-07T05:03:29;7.27;;;5.97;;
6217;SDS011;3142;48.206;11.550;2023-09-07T05:05:57;8.70;;;7.00;;
6217;SDS011;3142;48.206;11.550;2023-09-07T05:08:23;8.07;;;6.33;;
6217;SDS011;3142;48.206;11.550;2023-09-07T05:10:54;7.57;;;6.60;;
6217;SDS011;3142;48.206;11.550;2023-09-07T05:13:21;7.60;;;5.57;;
6217;SDS011;3142;48.206;11.550;2023-09-07T05:15:48;9.13;;;5.83;;
6217;SDS011;3142;48.206;11.550;2023-09-07T05:18:16;9.57;;;5.73;;
6217;SDS011;3142;48.206;11.550;2023-09-07T05:20:42;7.40;;;6.17;;
6217;SDS011;3142;48.206;11.550;2023-09-07T05:23:11;9.33;;;6.27;;
6217;SDS011;3142;48.206;11.550;2023-09-07T05:25:42;7.73;;;5.53;;
6217;SDS011;3142;48.206;11.550;2023-09-07T05:28:09;7.23;;;5.73;;
6217;SDS011;3142;48.206;11.550;2023-09-07T05:30:35;6.57;;;5.90;;
6217;SDS011;3142;48.206;11.550;2023-09-07T05:33:02;6.53;;;5.50;;
6217;SDS011;3142;48.206;11.550;2023-09-07T05:35:28;6.20;;;5.60;;
6217;SDS011;3142;48.206;11.550;2023-09-07T05:37:57;8.47;;;5.47;;
6217;SDS011;3142;48.206;11.550;2023-09-07T05:40:25;6.00;;;5.40;;
6217;SDS011;3142;48.206;11.550;2023-09-07T05:42:52;28.97;;;22.87;;
6217;SDS011;3142;48.206;11.550;2023-09-07T05:45:18;31.07;;;25.87;;
6217;SDS011;3142;48.206;11.550;2023-09-07T05:47:44;30.53;;;26.03;;
6217;SDS011;3142;48.206;11.550;2023-09-07T05:50:11;11.07;;;9.57;;
6217;SDS011;3142;48.206;11.550;2023-09-07T05:52:37;8.30;;;6.73;;
6217;SDS011;3142;48.206;11.550;2023-09-07T05:55:04;7.43;;;6.20;;
6217;SDS011;3142;48.206;11.550;2023-09-07T05:57:32;7.20;;;6.17;;
6217;SDS011;3142;48.206;11.550;2023-09-07T05:59:59;8.70;;;6.90;;
6217;SDS011;3142;48.206;11.550;2023-09-07T06:02:25;8.77;;;6.57;;
6217;SDS011;3142;48.206;11.550;2023-09-07T06:04:52;9.67;;;6.70;;
6217;SDS011;3142;48.206;11.550;2023-09-07T06:07:18;13.20;;;7.33;;
6217;SDS011;3142;48.206;11.550;2023-09-07T06:09:45;10.23;;;6.90;;
6217;SDS011;3142;48.206;11.550;2023-09-07T06:12:11;8.15;;;7.15;;
6217;SDS011;3142;48.206;11.550;2023-09-07T06:14:40;13.25;;;7.47;;
6217;SDS011;3142;48.206;11.550;2023-09-07T06:17:06;8.30;;;6.57;;
6217;SDS011;3142;48.206;11.550;2023-09-07T06:19:32;8.38;;;7.30;;
6217;SDS011;3142;48.206;11.550;2023-09-07T06:21:59;12.77;;;11.33;;
6217;SDS011;3142;48.206;11.550;2023-09-07T06:24:25;23.70;;;21.17;;
6217;SDS011;3142;48.206;11.550;2023-09-07T06:26:52;14.57;;;9.43;;
6217;SDS011;3142;48.206;11.550;2023-09-07T06:29:18;8.48;;;7.55;;
6217;SDS011;3142;48.206;11.550;2023-09-07T06:31:46;16.40;;;7.22;;
6217;SDS011;3142;48.206;11.550;2023-09-07T06:34:15;8.27;;;6.90;;
6217;SDS011;3142;48.206;11.550;2023-09-07T06:36:41;8.37;;;6.87;;
6217;SDS011;3142;48.206;11.550;2023-09-07T06:39:07;12.57;;;9.00;;
6217;SDS011;3142;48.206;11.550;2023-09-07T06:41:34;10.82;;;7.35;;
6217;SDS011;3142;48.206;11.550;2023-09-07T06:44:00;13.70;;;7.60;;
6217;SDS011;3142;48.206;11.550;2023-09-07T06:46:27;9.00;;;7.38;;
6217;SDS011;3142;48.206;11.550;2023-09-07T06:48:55;11.00;;;7.45;;
6217;SDS011;3142;48.206;11.550;2023-09-07T06:51:21;10.52;;;6.60;;
6217;SDS011;3142;48.206;11.550;2023-09-07T06:53:47;9.75;;;6.68;;
6217;SDS011;3142;48.206;11.550;2023-09-07T06:56:15;7.22;;;5.93;;
6217;SDS011;3142;48.206;11.550;2023-09-07T06:58:41;10.80;;;6.75;;
6217;SDS011;3142;48.206;11.550;2023-09-07T07:01:08;9.65;;;6.75;;
6217;SDS011;3142;48.206;11.550;2023-09-07T07:03:34;7.32;;;6.55;;
6217;SDS011;3142;48.206;11.550;2023-09-07T07:06:02;5.90;;;5.32;;
6217;SDS011;3142;48.206;11.550;2023-09-07T07:08:29;8.98;;;7.70;;
6217;SDS011;3142;48.206;11.550;2023-09-07T07:10:55;10.32;;;9.23;;
6217;SDS011;3142;48.206;11.550;2023-09-07T07:13:22;18.17;;;15.48;;
6217;SDS011;3142;48.206;11.550;2023-09-07T07:15:48;7.40;;;6.57;;
6217;SDS011;3142;48.206;11.550;2023-09-07T07:18:14;10.02;;;6.35;;
6217;SDS011;3142;48.206;11.550;2023-09-07T07:20:41;8.48;;;6.57;;
6217;SDS011;3142;48.206;11.550;2023-09-07T07:23:11;9.43;;;6.63;;
6217;SDS011;3142;48.206;11.550;2023-09-07T07:25:37;6.68;;;5.95;;
6217;SDS011;3142;48.206;11.550;2023-09-07T07:28:04;12.13;;;6.28;;
6217;SDS011;3142;48.206;11.550;2023-09-07T07:30:31;10.02;;;6.45;;
6217;SDS011;3142;48.206;11.550;2023-09-07T07:32:58;8.93;;;7.32;;
6217;SDS011;3142;48.206;11.550;2023-09-07T07:35:24;24.50;;;21.35;;
6217;SDS011;3142;48.206;11.550;2023-09-07T07:37:51;8.88;;;7.97;;
6217;SDS011;3142;48.206;11.550;2023-09-07T07:40:20;8.98;;;6.43;;
6217;SDS011;3142;48.206;11.550;2023-09-07T07:42:47;7.82;;;6.90;;
6217;SDS011;3142;48.206;11.550;2023-09-07T07:45:14;6.20;;;5.60;;
6217;SDS011;3142;48.206;11.550;2023-09-07T07:47:44;6.72;;;6.03;;
6217;SDS011;3142;48.206;11.550;2023-09-07T07:50:11;13.73;;;6.80;;
6217;SDS011;3142;48.206;11.550;2023-09-07T07:52:37;11.55;;;9.30;;
6217;SDS011;3142;48.206;11.550;2023-09-07T07:55:04;10.57;;;7.30;;
6217;SDS011;3142;48.206;11.550;2023-09-07T07:57:32;8.23;;;6.53;;
6217;SDS011;3142;48.206;11.550;2023-09-07T07:59:59;9.25;;;6.30;;
6217;SDS011;3142;48.206;11.550;2023-09-07T08:02:25;8.63;;;6.55;;
6217;SDS011;3142;48.206;11.550;2023-09-07T08:04:53;7.50;;;5.38;;
6217;SDS011;3142;48.206;11.550;2023-09-07T08:07:19;9.68;;;5.70;;
6217;SDS011;3142;48.206;11.550;2023-09-07T08:09:46;11.38;;;6.07;;
6217;SDS011;3142;48.206;11.550;2023-09-07T08:12:12;17.02;;;8.10;;
6217;SDS011;3142;48.206;11.550;2023-09-07T08:14:40;9.20;;;6.20;;
6217;SDS011;3142;48.206;11.550;2023-09-07T08:17:07;17.80;;;7.45;;
6217;SDS011;3142;48.206;11.550;2023-09-07T08:19:34;12.13;;;10.75;;
6217;SDS011;3142;48.206;11.550;2023-09-07T08:22:00;17.90;;;12.98;;
6217;SDS011;3142;48.206;11.550;2023-09-07T08:24:28;12.88;;;11.20;;
6217;SDS011;3142;48.206;11.550;2023-09-07T08:26:55;11.27;;;6.30;;
6217;SDS011;3142;48.206;11.550;2023-09-07T08:29:22;7.63;;;6.05;;
6217;SDS011;3142;48.206;11.550;2023-09-07T08:31:52;6.55;;;5.68;;
6217;SDS011;3142;48.206;11.550;2023-09-07T08:34:19;6.57;;;5.43;;
6217;SDS011;3142;48.206;11.550;2023-09-07T08:36:47;7.28;;;4.78;;
6217;SDS011;3142;48.206;11.550;2023-09-07T08:39:14;7.80;;;4.85;;
6217;SDS011;3142;48.206;11.550;2023-09-07T08:41:42;7.32;;;5.15;;
6217;SDS011;3142;48.206;11.550;2023-09-07T08:44:10;8.40;;;5.38;;
6217;SDS011;3142;48.206;11.550;2023-09-07T08:46:37;10.82;;;5.35;;
6217;SDS011;3142;48.206;11.550;2023-09-07T08:49:05;8.65;;;5.85;;
6217;SDS011;3142;48.206;11.550;2023-09-07T08:51:31;7.75;;;5.68;;
6217;SDS011;3142;48.206;11.550;2023-09-07T08:53:59;10.05;;;5.95;;
6217;SDS011;3142;48.206;11.550;2023-09-07T08:56:26;7.93;;;5.20;;
6217;SDS011;3142;48.206;11.550;2023-09-07T08:58:53;11.60;;;5.57;;
6217;SDS011;3142;48.206;11.550;2023-09-07T09:01:19;5.95;;;5.20;;
6217;SDS011;3142;48.206;11.550;2023-09-07T09:03:47;5.85;;;5.15;;
6217;SDS011;3142;48.206;11.550;2023-09-07T09:06:16;8.18;;;5.20;;
6217;SDS011;3142;48.206;11.550;2023-09-07T09:08:44;9.50;;;6.22;;
6217;SDS011;3142;48.206;11.550;2023-09-07T09:11:13;6.85;;;4.82;;
6217;SDS011;3142;48.206;11.550;2023-09-07T09:13:41;6.95;;;4.93;;
6217;SDS011;3142;48.206;11.550;2023-09-07T09:16:07;5.47;;;5.03;;
6217;SDS011;3142;48.206;11.550;2023-09-07T09:18:34;6.60;;;5.07;;
6217;SDS011;3142;48.206;11.550;2023-09-07T09:21:00;9.05;;;5.35;;
6217;SDS011;3142;48.206;11.550;2023-09-07T09:23:31;5.88;;;4.75;;
6217;SDS011;3142;48.206;11.550;2023-09-07T09:25:59;9.63;;;4.30;;
6217;SDS011;3142;48.206;11.550;2023-09-07T09:28:25;10.32;;;9.05;;
6217;SDS011;3142;48.206;11.550;2023-09-07T09:30:52;33.00;;;29.65;;
6217;SDS011;3142;48.206;11.550;2023-09-07T09:33:19;15.45;;;9.00;;
6217;SDS011;3142;48.206;11.550;2023-09-07T09:35:45;5.07;;;4.57;;
6217;SDS011;3142;48.206;11.550;2023-09-07T09:38:13;5.43;;;4.93;;
6217;SDS011;3142;48.206;11.550;2023-09-07T09:40:41;9.18;;;4.78;;
6217;SDS011;3142;48.206;11.550;2023-09-07T09:43:08;6.82;;;5.22;;
6217;SDS011;3142;48.206;11.550;2023-09-07T09:45:36;5.97;;;4.97;;
6217;SDS011;3142;48.206;11.550;2023-09-07T09:48:03;4.78;;;4.35;;
6217;SDS011;3142;48.206;11.550;2023-09-07T09:50:31;9.43;;;4.78;;
6217;SDS011;3142;48.206;11.550;2023-09-07T09:53:02;6.05;;;5.20;;
6217;SDS011;3142;48.206;11.550;2023-09-07T09:55:31;4.95;;;4.47;;
6217;SDS011;3142;48.206;11.550;2023-09-07T09:57:59;5.07;;;4.25;;
6217;SDS011;3142;48.206;11.550;2023-09-07T10:00:26;7.75;;;4.70;;
6217;SDS011;3142;48.206;11.550;2023-09-07T10:03:00;5.90;;;5.20;;
6217;SDS011;3142;48.206;11.550;2023-09-07T10:05:30;8.55;;;6.45;;
6217;SDS011;3142;48.206;11.550;2023-09-07T10:08:00;9.82;;;8.82;;
6217;SDS011;3142;48.206;11.550;2023-09-07T10:10:31;5.82;;;4.60;;
6217;SDS011;3142;48.206;11.550;2023-09-07T10:13:02;8.35;;;4.80;;
6217;SDS011;3142;48.206;11.550;2023-09-07T10:15:28;5.63;;;4.60;;
6217;SDS011;3142;48.206;11.550;2023-09-07T10:18:05;5.10;;;4.60;;
6217;SDS011;3142;48.206;11.550;2023-09-07T10:20:48;12.90;;;11.18;;
6217;SDS011;3142;48.206;11.550;2023-09-07T10:23:16;17.60;;;15.80;;
6217;SDS011;3142;48.206;11.550;2023-09-07T10:25:42;34.90;;;31.42;;
6217;SDS011;3142;48.206;11.550;2023-09-07T10:28:22;7.53;;;6.00;;
6217;SDS011;3142;48.206;11.550;2023-09-07T10:30:59;8.20;;;5.35;;
6217;SDS011;3142;48.206;11.550;2023-09-07T10:33:28;9.93;;;4.28;;
6217;SDS011;3142;48.206;11.550;2023-09-07T10:35:55;4.43;;;3.70;;
6217;SDS011;3142;48.206;11.550;2023-09-07T10:38:22;6.32;;;3.92;;
6217;SDS011;3142;48.206;11.550;2023-09-07T10:40:54;5.10;;;3.85;;
6217;SDS011;3142;48.206;11.550;2023-09-07T10:43:24;4.55;;;4.15;;
6217;SDS011;3142;48.206;11.550;2023-09-07T10:45:50;7.55;;;4.28;;
6217;SDS011;3142;48.206;11.550;2023-09-07T10:48:17;6.65;;;4.05;;
6217;SDS011;3142;48.206;11.550;2023-09-07T10:50:43;6.82;;;3.70;;
6217;SDS011;3142;48.206;11.550;2023-09-07T10:53:11;13.40;;;10.13;;
6217;SDS011;3142;48.206;11.550;2023-09-07T10:55:39;12.20;;;9.48;;
6217;SDS011;3142;48.206;11.550;2023-09-07T10:58:08;7.28;;;4.80;;
6217;SDS011;3142;48.206;11.550;2023-09-07T11:00:36;4.30;;;3.90;;
6217;SDS011;3142;48.206;11.550;2023-09-07T11:03:07;7.68;;;3.92;;
6217;SDS011;3142;48.206;11.550;2023-09-07T11:05:34;4.10;;;3.70;;
6217;SDS011;3142;48.206;11.550;2023-09-07T11:08:03;5.18;;;3.83;;
6217;SDS011;3142;48.206;11.550;2023-09-07T11:10:32;6.30;;;3.80;;
6217;SDS011;3142;48.206;11.550;2023-09-07T11:13:01;4.63;;;4.22;;
6217;SDS011;3142;48.206;11.550;2023-09-07T11:15:29;6.20;;;4.35;;
6217;SDS011;3142;48.206;11.550;2023-09-07T11:17:57;5.72;;;4.07;;
6217;SDS011;3142;48.206;11.550;2023-09-07T11:20:23;7.63;;;4.22;;
6217;SDS011;3142;48.206;11.550;2023-09-07T11:22:51;4.55;;;3.50;;
6217;SDS011;3142;48.206;11.550;2023-09-07T11:25:17;8.32;;;3.78;;
6217;SDS011;3142;48.206;11.550;2023-09-07T11:27:43;6.90;;;4.68;;
6217;SDS011;3142;48.206;11.550;2023-09-07T11:30:10;6.55;;;3.85;;
6217;SDS011;3142;48.206;11.550;2023-09-07T11:32:37;5.05;;;3.67;;
6217;SDS011;3142;48.206;11.550;2023-09-07T11:35:06;5.50;;;3.38;;
6217;SDS011;3142;48.206;11.550;2023-09-07T11:37:35;4.45;;;3.47;;
6217;SDS011;3142;48.206;11.550;2023-09-07T11:40:01;4.75;;;3.40;;
6217;SDS011;3142;48.206;11.550;2023-09-07T11:42:36;5.40;;;3.75;;
6217;SDS011;3142;48.206;11.550;2023-09-07T11:45:02;6.10;;;3.55;;
6217;SDS011;3142;48.206;11.550;2023-09-07T11:47:29;4.88;;;3.30;;
6217;SDS011;3142;48.206;11.550;2023-09-07T11:49:56;4.00;;;3.60;;
6217;SDS011;3142;48.206;11.550;2023-09-07T11:52:23;7.20;;;4.15;;
6217;SDS011;3142;48.206;11.550;2023-09-07T11:54:50;5.88;;;3.65;;
6217;SDS011;3142;48.206;11.550;2023-09-07T11:57:16;3.72;;;3.20;;
6217;SDS011;3142;48.206;11.550;2023-09-07T11:59:43;4.13;;;3.50;;
6217;SDS011;3142;48.206;11.550;2023-09-07T12:02:09;4.80;;;2.97;;
6217;SDS011;3142;48.206;11.550;2023-09-07T12:04:39;3.65;;;3.30;;
6217;SDS011;3142;48.206;11.550;2023-09-07T12:07:06;6.65;;;3.28;;
6217;SDS011;3142;48.206;11.550;2023-09-07T12:09:34;3.85;;;3.55;;
6217;SDS011;3142;48.206;11.550;2023-09-07T12:12:00;3.75;;;3.40;;
6217;SDS011;3142;48.206;11.550;2023-09-07T12:14:27;5.88;;;3.60;;
6217;SDS011;3142;48.206;11.550;2023-09-07T12:16:53;5.38;;;4.88;;
6217;SDS011;3142;48.206;11.550;2023-09-07T12:19:19;6.97;;;5.13;;
6217;SDS011;3142;48.206;11.550;2023-09-07T12:21:46;6.22;;;5.63;;
6217;SDS011;3142;48.206;11.550;2023-09-07T12:24:12;5.15;;;3.90;;
6217;SDS011;3142;48.206;11.550;2023-09-07T12:26:40;4.63;;;3.58;;
6217;SDS011;3142;48.206;11.550;2023-09-07T12:29:06;5.95;;;3.20;;
6217;SDS011;3142;48.206;11.550;2023-09-07T12:31:33;5.70;;;3.22;;
6217;SDS011;3142;48.206;11.550;2023-09-07T12:34:00;3.95;;;3.47;;
6217;SDS011;3142;48.206;11.550;2023-09-07T12:36:26;3.78;;;3.17;;
6217;SDS011;3142;48.206;11.550;2023-09-07T12:38:54;5.55;;;3.63;;
6217;SDS011;3142;48.206;11.550;2023-09-07T12:41:22;6.10;;;3.60;;
6217;SDS011;3142;48.206;11.550;2023-09-07T12:43:50;3.55;;;3.25;;
6217;SDS011;3142;48.206;11.550;2023-09-07T12:46:17;4.15;;;3.05;;
6217;SDS011;3142;48.206;11.550;2023-09-07T12:48:43;3.60;;;3.30;;
6217;SDS011;3142;48.206;11.550;2023-09-07T12:51:10;3.53;;;3.15;;
6217;SDS011;3142;48.206;11.550;2023-09-07T12:53:37;3.42;;;3.13;;
6217;SDS011;3142;48.206;11.550;2023-09-07T12:56:04;5.07;;;3.30;;
6217;SDS011;3142;48.206;11.550;2023-09-07T12:58:31;4.85;;;3.40;;
6217;SDS011;3142;48.206;11.550;2023-09-07T13:00:59;4.97;;;3.42;;
6217;SDS011;3142;48.206;11.550;2023-09-07T13:03:25;3.60;;;3.13;;
6217;SDS011;3142;48.206;11.550;2023-09-07T13:05:52;4.07;;;3.50;;
6217;SDS011;3142;48.206;11.550;2023-09-07T13:08:18;5.97;;;5.38;;
6217;SDS011;3142;48.206;11.550;2023-09-07T13:10:45;4.30;;;3.90;;
6217;SDS011;3142;48.206;11.550;2023-09-07T13:13:11;5.30;;;4.68;;
6217;SDS011;3142;48.206;11.550;2023-09-07T13:15:38;4.20;;;3.20;;
6217;SDS011;3142;48.206;11.550;2023-09-07T13:18:06;5.82;;;3.50;;
6217;SDS011;3142;48.206;11.550;2023-09-07T13:20:32;4.93;;;3.00;;
6217;SDS011;3142;48.206;11.550;2023-09-07T13:22:59;5.03;;;3.92;;
6217;SDS011;3142;48.206;11.550;2023-09-07T13:25:25;4.68;;;2.78;;
6217;SDS011;3142;48.206;11.550;2023-09-07T13:27:52;5.13;;;3.33;;
6217;SDS011;3142;48.206;11.550;2023-09-07T13:30:18;3.70;;;2.90;;
6217;SDS011;3142;48.206;11.550;2023-09-07T13:32:46;2.92;;;2.72;;
6217;SDS011;3142;48.206;11.550;2023-09-07T13:35:14;8.60;;;6.93;;
6217;SDS011;3142;48.206;11.550;2023-09-07T13:37:40;4.60;;;3.15;;
6217;SDS011;3142;48.206;11.550;2023-09-07T13:40:07;3.72;;;3.05;;
6217;SDS011;3142;48.206;11.550;2023-09-07T13:42:34;3.97;;;3.05;;
6217;SDS011;3142;48.206;11.550;2023-09-07T13:45:01;4.85;;;3.25;;
6217;SDS011;3142;48.206;11.550;2023-09-07T13:47:27;3.53;;;3.20;;
6217;SDS011;3142;48.206;11.550;2023-09-07T13:49:54;3.47;;;3.17;;
6217;SDS011;3142;48.206;11.550;2023-09-07T13:52:22;6.43;;;3.22;;
6217;SDS011;3142;48.206;11.550;2023-09-07T13:54:48;3.45;;;3.15;;
6217;SDS011;3142;48.206;11.550;2023-09-07T13:57:14;5.68;;;3.40;;
6217;SDS011;3142;48.206;11.550;2023-09-07T13:59:41;3.72;;;3.03;;
6217;SDS011;3142;48.206;11.550;2023-09-07T14:02:07;4.07;;;2.88;;
6217;SDS011;3142;48.206;11.550;2023-09-07T14:04:34;3.90;;;3.00;;
6217;SDS011;3142;48.206;11.550;2023-09-07T14:07:00;4.45;;;3.22;;
6217;SDS011;3142;48.206;11.550;2023-09-07T14:09:28;3.42;;;2.97;;
6217;SDS011;3142;48.206;11.550;2023-09-07T14:11:54;4.82;;;3.15;;
6217;SDS011;3142;48.206;11.550;2023-09-07T14:14:21;4.13;;;3.03;;
6217;SDS011;3142;48.206;11.550;2023-09-07T14:16:47;3.92;;;3.30;;
6217;SDS011;3142;48.206;11.550;2023-09-07T14:19:15;4.80;;;2.95;;
6217;SDS011;3142;48.206;11.550;2023-09-07T14:21:41;3.70;;;3.40;;
6217;SDS011;3142;48.206;11.550;2023-09-07T14:24:08;3.88;;;2.97;;
6217;SDS011;3142;48.206;11.550;2023-09-07T14:26:35;5.82;;;3.33;;
6217;SDS011;3142;48.206;11.550;2023-09-07T14:29:02;3.55;;;2.88;;
6217;SDS011;3142;48.206;11.550;2023-09-07T14:31:29;7.75;;;2.88;;
6217;SDS011;3142;48.206;11.550;2023-09-07T14:33:56;4.60;;;3.10;;
6217;SDS011;3142;48.206;11.550;2023-09-07T14:36:22;3.17;;;2.88;;
6217;SDS011;3142;48.206;11.550;2023-09-07T14:38:49;3.55;;;2.92;;
6217;SDS011;3142;48.206;11.550;2023-09-07T14:41:15;5.10;;;2.97;;
6217;SDS011;3142;48.206;11.550;2023-09-07T14:43:45;6.45;;;3.22;;
6217;SDS011;3142;48.206;11.550;2023-09-07T14:46:12;4.63;;;3.00;;
6217;SDS011;3142;48.206;11.550;2023-09-07T14:48:39;4.30;;;3.03;;
6217;SDS011;3142;48.206;11.550;2023-09-07T14:51:06;4.55;;;3.47;;
6217;SDS011;3142;48.206;11.550;2023-09-07T14:53:32;5.43;;;3.80;;
6217;SDS011;3142;48.206;11.550;2023-09-07T14:55:59;4.30;;;3.20;;
6217;SDS011;3142;48.206;11.550;2023-09-07T14:58:25;4.97;;;3.60;;